Airport Name : Naha

Other Name : Naha

ICAO : ROAH

IATA : OKA

FAA :

Latitude : 26.195814

Longitude : 127.645869

Country : Japan

Local Date and Time : 12/14/2017 5:22:00 AM

 

TAF (Terminal Aerodrome Forecast)

TAF ROAH 131705Z 1318/1500 04011KT 9999 FEW035 BKN045

 

METAR (METeorological Aerodrome Report)

ROAH 132000Z 05009KT 020V080 CAVOK 16/08 Q1020 RMK 7SC050 A3013

ROAH 131930Z 06007KT CAVOK 16/08 Q1020 RMK A3013

ROAH 131900Z 05010KT 9999 FEW035 16/08 Q1020 RMK 1CU035 A3014

ROAH 131830Z 05011KT 9999 FEW035 SCT050 16/08 Q1020 RMK 1CU035 3SC050 A3015

ROAH 131800Z 05010KT 9999 FEW035 BKN050 16/08 Q1021 RMK 1CU035 7SC050 A3015

ROAH 131730Z 04009KT 9999 FEW035 BKN050 16/08 Q1021 RMK 1CU035 7SC050 A3016

ROAH 131700Z 04010KT 9999 FEW035 BKN044 16/08 Q1021 RMK 1CU035 6SC044 A3018

ROAH 131630Z 04012KT 9999 FEW035 BKN045 16/08 Q1022 RMK 1CU035 7SC045 A3019